Time;durP1;ratioP1;P1;durP2;ratioP2;P2;SDS_P1;SDS_P2;PMS_P1;PMS_P2;Temp;Humidity;BMP_temperature;BMP_pressure;BME280_temperature;BME280_humidity;BME280_pressure;Samples;Min_cycle;Max_cycle;Signal;HPM_P1;HPM_P2
2023/05/14 00:00:06;;;;;;;4.40;2.60;;;;;;;;;;5057695;28;20213;-65
2023/05/14 00:02:34;;;;;;;2.80;2.60;;;;;;;;;;5057415;28;20238;-65
2023/05/14 00:05:01;;;;;;;4.00;2.57;;;;;;;;;;5057612;28;20642;-64
2023/05/14 00:07:29;;;;;;;3.37;3.00;;;;;;;;;;5057624;28;20233;-64
2023/05/14 00:09:59;;;;;;;3.70;2.67;;;;;;;;;;5057619;28;20241;-64
2023/05/14 00:12:27;;;;;;;3.20;2.90;;;;;;;;;;5055326;28;20245;-64
2023/05/14 00:14:54;;;;;;;4.03;2.77;;;;;;;;;;5057230;28;20662;-64
2023/05/14 00:17:22;;;;;;;2.80;2.60;;;;;;;;;;5057395;28;20249;-64
2023/05/14 00:19:50;;;;;;;3.30;3.00;;;;;;;;;;5057489;28;20207;-64
2023/05/14 00:22:18;;;;;;;4.87;3.07;;;;;;;;;;5057566;28;20210;-64
2023/05/14 00:24:45;;;;;;;6.43;3.37;;;;;;;;;;5057160;28;20269;-64
2023/05/14 00:27:14;;;;;;;6.03;3.67;;;;;;;;;;5057006;28;20210;-65
2023/05/14 00:29:42;;;;;;;3.53;3.23;;;;;;;;;;5057466;28;20716;-64
2023/05/14 00:32:10;;;;;;;3.80;3.47;;;;;;;;;;5057449;28;20230;-65
2023/05/14 00:34:37;;;;;;;3.10;2.80;;;;;;;;;;5057303;28;20234;-65
2023/05/14 00:37:05;;;;;;;3.03;2.43;;;;;;;;;;5056959;28;20231;-65
2023/05/14 00:39:33;;;;;;;3.03;2.57;;;;;;;;;;5057349;28;20238;-65
2023/05/14 00:42:01;;;;;;;2.80;2.33;;;;;;;;;;5056928;28;20202;-64
2023/05/14 00:44:30;;;;;;;2.97;2.77;;;;;;;;;;5057288;28;20218;-64
2023/05/14 00:46:58;;;;;;;3.03;2.60;;;;;;;;;;5056944;28;20227;-64
2023/05/14 00:49:27;;;;;;;3.67;2.63;;;;;;;;;;5057254;28;20762;-65
2023/05/14 00:51:57;;;;;;;2.67;2.10;;;;;;;;;;5056967;28;20260;-65
2023/05/14 00:54:25;;;;;;;3.20;3.00;;;;;;;;;;5057281;28;20270;-64
2023/05/14 00:56:53;;;;;;;2.73;2.53;;;;;;;;;;5056917;28;20300;-64
2023/05/14 00:59:21;;;;;;;2.97;2.67;;;;;;;;;;5056709;28;20633;-65
2023/05/14 01:01:50;;;;;;;3.07;2.53;;;;;;;;;;5057142;28;20268;-65
2023/05/14 01:04:18;;;;;;;2.73;2.40;;;;;;;;;;5057085;28;20260;-65
2023/05/14 01:06:51;;;;;;;3.43;2.27;;;;;;;;;;5056907;28;20584;-64
2023/05/14 01:09:22;;;;;;;2.80;2.33;;;;;;;;;;5060084;28;20203;-65
2023/05/14 01:11:52;;;;;;;4.93;2.30;;;;;;;;;;5060532;28;20207;-64
2023/05/14 01:14:21;;;;;;;2.80;2.60;;;;;;;;;;5060390;28;20218;-64
2023/05/14 01:16:52;;;;;;;2.80;2.60;;;;;;;;;;5060125;28;20318;-64
2023/05/14 01:19:22;;;;;;;4.73;3.10;;;;;;;;;;5060495;28;20219;-64
2023/05/14 01:21:51;;;;;;;4.63;2.77;;;;;;;;;;5060113;28;20633;-65
2023/05/14 01:24:19;;;;;;;3.03;2.20;;;;;;;;;;5060250;28;20234;-65
2023/05/14 01:26:46;;;;;;;2.87;2.60;;;;;;;;;;5060206;28;20250;-64
2023/05/14 01:29:16;;;;;;;3.17;2.73;;;;;;;;;;5060199;28;20225;-64
2023/05/14 01:31:45;;;;;;;2.67;2.47;;;;;;;;;;5060357;28;20260;-64
2023/05/14 01:34:14;;;;;;;2.20;2.00;;;;;;;;;;5060227;28;20203;-64
2023/05/14 01:36:42;;;;;;;2.70;2.30;;;;;;;;;;5060082;28;20234;-65
2023/05/14 01:39:12;;;;;;;2.50;2.40;;;;;;;;;;5060100;28;20294;-64
2023/05/14 01:41:40;;;;;;;2.27;2.10;;;;;;;;;;5057471;28;20203;-65
2023/05/14 01:44:08;;;;;;;2.50;2.30;;;;;;;;;;5056978;28;20203;-65
2023/05/14 01:46:36;;;;;;;2.57;2.20;;;;;;;;;;5059981;28;20222;-64
2023/05/14 01:49:04;;;;;;;2.50;2.30;;;;;;;;;;5059727;28;20301;-64
2023/05/14 01:51:32;;;;;;;2.93;2.60;;;;;;;;;;5060044;28;20674;-64
2023/05/14 01:54:00;;;;;;;2.57;2.00;;;;;;;;;;5059592;28;20638;-64
2023/05/14 01:56:29;;;;;;;4.40;3.07;;;;;;;;;;5059336;28;20714;-65
2023/05/14 01:58:56;;;;;;;3.87;2.57;;;;;;;;;;5059496;28;20210;-65
2023/05/14 02:01:24;;;;;;;2.90;2.70;;;;;;;;;;5059529;28;20252;-64
2023/05/14 02:03:52;;;;;;;2.60;2.40;;;;;;;;;;5059450;28;20617;-65
2023/05/14 02:06:20;;;;;;;3.63;2.57;;;;;;;;;;5059579;28;20234;-64
2023/05/14 02:08:48;;;;;;;2.53;2.33;;;;;;;;;;5059458;28;20613;-64
2023/05/14 02:11:16;;;;;;;2.80;2.60;;;;;;;;;;5059654;28;20253;-64
2023/05/14 02:13:45;;;;;;;3.57;2.27;;;;;;;;;;5059000;28;20207;-64
2023/05/14 02:16:12;;;;;;;2.53;2.30;;;;;;;;;;5059343;28;20234;-64
2023/05/14 02:18:40;;;;;;;3.40;2.50;;;;;;;;;;5059118;28;20597;-64
2023/05/14 02:21:08;;;;;;;2.70;2.50;;;;;;;;;;5058392;28;20273;-65
2023/05/14 02:23:36;;;;;;;3.13;2.40;;;;;;;;;;5059029;28;20598;-65
2023/05/14 02:26:09;;;;;;;2.80;2.60;;;;;;;;;;5058910;28;20219;-64
2023/05/14 02:28:36;;;;;;;2.80;2.37;;;;;;;;;;5058617;28;20222;-63
2023/05/14 02:31:05;;;;;;;3.77;2.90;;;;;;;;;;5059147;28;20211;-64
2023/05/14 02:33:33;;;;;;;2.90;2.70;;;;;;;;;;5055345;28;20204;-64
2023/05/14 02:36:01;;;;;;;3.53;2.97;;;;;;;;;;5058740;28;20254;-64
2023/05/14 02:38:28;;;;;;;3.10;2.73;;;;;;;;;;5058601;28;20706;-64
2023/05/14 02:40:56;;;;;;;2.73;2.53;;;;;;;;;;5058397;28;20238;-65
2023/05/14 02:43:24;;;;;;;3.40;2.77;;;;;;;;;;5058204;28;20238;-64
2023/05/14 02:45:51;;;;;;;2.87;2.67;;;;;;;;;;5058657;28;20253;-64
2023/05/14 02:48:20;;;;;;;2.27;2.13;;;;;;;;;;5058769;28;20210;-65
2023/05/14 02:50:48;;;;;;;3.23;2.80;;;;;;;;;;5058349;28;20210;-64
2023/05/14 02:53:16;;;;;;;4.60;2.73;;;;;;;;;;5058658;28;20203;-65
2023/05/14 02:55:43;;;;;;;2.77;2.50;;;;;;;;;;5058398;28;20219;-64
2023/05/14 02:58:11;;;;;;;6.90;3.10;;;;;;;;;;5057878;28;20257;-64
2023/05/14 03:00:39;;;;;;;3.93;2.60;;;;;;;;;;5058114;28;20215;-64
2023/05/14 03:03:07;;;;;;;5.03;2.70;;;;;;;;;;5058323;28;20206;-65
2023/05/14 03:05:37;;;;;;;3.10;2.80;;;;;;;;;;5058433;28;20226;-64
2023/05/14 03:08:05;;;;;;;2.63;2.43;;;;;;;;;;5058497;28;20264;-64
2023/05/14 03:10:33;;;;;;;3.63;3.20;;;;;;;;;;5058463;28;20214;-64
2023/05/14 03:13:00;;;;;;;5.40;3.07;;;;;;;;;;5057998;28;20217;-64
2023/05/14 03:15:28;;;;;;;2.80;2.47;;;;;;;;;;5058334;28;20222;-64
2023/05/14 03:17:56;;;;;;;2.83;2.60;;;;;;;;;;5058022;28;20230;-64
2023/05/14 03:20:24;;;;;;;2.90;2.70;;;;;;;;;;5058423;28;20658;-64
2023/05/14 03:22:54;;;;;;;3.20;2.90;;;;;;;;;;5057910;28;20642;-64
2023/05/14 03:25:22;;;;;;;3.93;3.20;;;;;;;;;;5058360;28;20237;-65
2023/05/14 03:27:50;;;;;;;3.50;3.00;;;;;;;;;;5046321;28;20204;-64
2023/05/14 03:30:18;;;;;;;5.37;3.13;;;;;;;;;;5045403;28;20233;-64
2023/05/14 03:32:46;;;;;;;3.30;3.00;;;;;;;;;;5045917;28;20660;-64
2023/05/14 03:35:14;;;;;;;3.27;2.67;;;;;;;;;;5046965;28;20218;-64
2023/05/14 03:37:41;;;;;;;2.67;2.47;;;;;;;;;;5047253;28;20242;-64
2023/05/14 03:40:11;;;;;;;3.00;2.80;;;;;;;;;;5048239;28;20269;-65
2023/05/14 03:42:39;;;;;;;3.40;2.63;;;;;;;;;;5056006;28;20203;-64
2023/05/14 03:45:07;;;;;;;2.53;2.40;;;;;;;;;;5051825;28;20245;-64
2023/05/14 03:47:36;;;;;;;3.43;2.70;;;;;;;;;;5047756;28;20600;-64
2023/05/14 03:50:05;;;;;;;2.60;2.40;;;;;;;;;;5047200;28;20662;-64
2023/05/14 03:52:32;;;;;;;2.73;2.53;;;;;;;;;;5046937;28;20196;-64
2023/05/14 03:55:00;;;;;;;2.50;2.30;;;;;;;;;;5054766;28;20206;-64
2023/05/14 03:57:29;;;;;;;2.73;2.53;;;;;;;;;;5057380;28;20202;-64
2023/05/14 03:59:57;;;;;;;3.70;2.70;;;;;;;;;;5057813;28;20237;-64
2023/05/14 04:02:25;;;;;;;2.80;2.60;;;;;;;;;;5057979;28;20234;-64
2023/05/14 04:04:53;;;;;;;2.87;2.60;;;;;;;;;;5057326;28;20229;-64
2023/05/14 04:07:21;;;;;;;3.87;3.00;;;;;;;;;;5050667;28;20214;-64
2023/05/14 04:09:48;;;;;;;2.83;2.60;;;;;;;;;;5053988;28;20241;-64
2023/05/14 04:12:16;;;;;;;2.80;2.60;;;;;;;;;;5052704;28;20230;-64
2023/05/14 04:14:47;;;;;;;4.47;2.87;;;;;;;;;;5051642;28;20202;-64
2023/05/14 04:17:15;;;;;;;3.00;2.70;;;;;;;;;;5051657;28;20207;-64
2023/05/14 04:19:43;;;;;;;3.37;3.17;;;;;;;;;;5053608;28;20219;-64
2023/05/14 04:22:11;;;;;;;2.63;2.43;;;;;;;;;;5054061;28;20267;-64
2023/05/14 04:24:39;;;;;;;4.23;2.80;;;;;;;;;;5055387;28;20227;-64
2023/05/14 04:27:07;;;;;;;3.50;2.90;;;;;;;;;;5055999;28;20222;-64
2023/05/14 04:29:38;;;;;;;3.27;2.67;;;;;;;;;;5053809;28;20195;-64
2023/05/14 04:32:07;;;;;;;3.77;2.77;;;;;;;;;;5055982;28;20604;-64
2023/05/14 04:34:38;;;;;;;3.27;2.83;;;;;;;;;;5054810;28;20199;-64
2023/05/14 04:37:06;;;;;;;3.40;3.10;;;;;;;;;;5056004;28;20225;-64
2023/05/14 04:39:34;;;;;;;2.83;2.60;;;;;;;;;;5053605;28;20248;-64
2023/05/14 04:42:02;;;;;;;2.80;2.60;;;;;;;;;;5053173;28;20211;-64
2023/05/14 04:44:30;;;;;;;3.10;2.90;;;;;;;;;;5039552;28;20212;-65
2023/05/14 04:46:58;;;;;;;3.77;2.90;;;;;;;;;;5041043;28;20227;-64
2023/05/14 04:49:27;;;;;;;3.27;2.97;;;;;;;;;;5047714;28;20615;-64
2023/05/14 04:51:54;;;;;;;3.07;2.70;;;;;;;;;;5061007;28;20238;-64
2023/05/14 04:54:22;;;;;;;3.67;3.20;;;;;;;;;;5061164;28;20229;-64
2023/05/14 04:56:50;;;;;;;3.30;3.00;;;;;;;;;;5060477;28;20227;-64
2023/05/14 04:59:18;;;;;;;4.57;2.80;;;;;;;;;;5060669;28;20230;-64
2023/05/14 05:01:46;;;;;;;4.67;3.07;;;;;;;;;;5060585;28;20213;-65
2023/05/14 05:04:14;;;;;;;3.13;2.83;;;;;;;;;;5060876;28;20643;-64
2023/05/14 05:06:43;;;;;;;3.53;3.00;;;;;;;;;;5060559;28;20231;-64
2023/05/14 05:09:11;;;;;;;3.83;3.50;;;;;;;;;;5060773;28;20207;-65
2023/05/14 05:11:38;;;;;;;3.57;2.50;;;;;;;;;;5060478;28;20202;-64
2023/05/14 05:14:06;;;;;;;3.50;3.20;;;;;;;;;;5060419;28;20253;-64
2023/05/14 05:16:34;;;;;;;6.67;3.43;;;;;;;;;;5060600;28;20265;-65
2023/05/14 05:19:02;;;;;;;3.47;3.13;;;;;;;;;;5060501;28;20317;-65
2023/05/14 05:21:29;;;;;;;3.93;3.13;;;;;;;;;;5060572;28;20661;-65
2023/05/14 05:23:58;;;;;;;3.40;3.10;;;;;;;;;;5060303;28;20239;-64
2023/05/14 05:26:26;;;;;;;4.33;3.17;;;;;;;;;;5059979;28;20223;-64
2023/05/14 05:28:54;;;;;;;3.20;2.90;;;;;;;;;;5060144;28;20237;-64
2023/05/14 05:31:22;;;;;;;3.57;3.00;;;;;;;;;;5060035;28;20622;-64
2023/05/14 05:33:49;;;;;;;4.67;3.23;;;;;;;;;;5060115;28;20673;-65
2023/05/14 05:36:17;;;;;;;3.43;2.93;;;;;;;;;;5060146;28;20230;-62
2023/05/14 05:38:45;;;;;;;3.17;2.90;;;;;;;;;;5059928;28;20878;-63
2023/05/14 05:41:14;;;;;;;3.40;3.10;;;;;;;;;;5057784;28;20646;-62
2023/05/14 05:43:41;;;;;;;3.40;3.20;;;;;;;;;;5061886;28;20211;-62
2023/05/14 05:46:09;;;;;;;3.33;3.03;;;;;;;;;;5064171;28;20678;-62
2023/05/14 05:48:37;;;;;;;3.23;2.93;;;;;;;;;;5058096;28;20207;-62
2023/05/14 05:51:05;;;;;;;3.83;3.53;;;;;;;;;;5042633;28;20612;-62
2023/05/14 05:53:32;;;;;;;3.80;3.57;;;;;;;;;;5055907;28;20233;-62
2023/05/14 05:56:00;;;;;;;3.80;3.47;;;;;;;;;;5059533;28;20227;-62
2023/05/14 05:58:29;;;;;;;3.87;3.47;;;;;;;;;;5059136;28;20260;-62
2023/05/14 06:00:57;;;;;;;3.53;3.20;;;;;;;;;;5059266;28;20274;-62
2023/05/14 06:03:25;;;;;;;3.37;3.17;;;;;;;;;;5059502;28;20257;-62
2023/05/14 06:05:53;;;;;;;5.20;3.83;;;;;;;;;;5047583;28;20227;-61
2023/05/14 06:08:21;;;;;;;3.13;2.93;;;;;;;;;;5039506;28;20203;-61
2023/05/14 06:10:48;;;;;;;3.43;3.10;;;;;;;;;;5039342;28;20200;-61
2023/05/14 06:13:16;;;;;;;3.50;3.20;;;;;;;;;;5039797;28;20245;-61
2023/05/14 06:15:45;;;;;;;3.70;3.40;;;;;;;;;;5039036;28;20235;-61
2023/05/14 06:18:13;;;;;;;3.90;3.50;;;;;;;;;;5039372;28;20207;-62
2023/05/14 06:20:41;;;;;;;3.50;3.23;;;;;;;;;;5038872;28;20318;-62
2023/05/14 06:23:10;;;;;;;4.33;3.93;;;;;;;;;;5039229;28;20207;-63
2023/05/14 06:25:38;;;;;;;4.07;3.33;;;;;;;;;;5043539;28;20222;-61
2023/05/14 06:28:06;;;;;;;4.27;3.70;;;;;;;;;;5056869;28;20195;-62
2023/05/14 06:30:34;;;;;;;4.93;3.40;;;;;;;;;;5057690;28;20194;-61
2023/05/14 06:33:03;;;;;;;3.77;3.27;;;;;;;;;;5057488;28;20260;-61
2023/05/14 06:35:31;;;;;;;3.70;3.40;;;;;;;;;;5051142;28;20251;-61
2023/05/14 06:37:59;;;;;;;3.57;3.27;;;;;;;;;;5055222;28;20211;-61
2023/05/14 06:40:26;;;;;;;4.07;3.50;;;;;;;;;;5055517;28;20257;-61
2023/05/14 06:42:54;;;;;;;3.93;3.30;;;;;;;;;;5055136;28;20662;-62
2023/05/14 06:45:22;;;;;;;4.43;4.03;;;;;;;;;;5055552;28;20333;-62
2023/05/14 06:47:51;;;;;;;3.90;3.60;;;;;;;;;;5055312;28;20235;-62
2023/05/14 06:50:20;;;;;;;6.13;3.40;;;;;;;;;;5054709;28;20245;-62
2023/05/14 06:52:48;;;;;;;3.60;3.30;;;;;;;;;;5051431;28;20199;-62
2023/05/14 06:55:16;;;;;;;4.57;3.50;;;;;;;;;;5053990;28;20219;-61
2023/05/14 06:57:44;;;;;;;6.70;3.40;;;;;;;;;;5053927;28;20238;-61
2023/05/14 07:00:13;;;;;;;3.87;3.57;;;;;;;;;;5050611;28;20246;-61
2023/05/14 07:02:40;;;;;;;3.67;3.37;;;;;;;;;;5052915;28;20215;-62
2023/05/14 07:05:08;;;;;;;5.40;3.73;;;;;;;;;;5054943;28;20225;-61
2023/05/14 07:07:37;;;;;;;3.53;3.23;;;;;;;;;;5052101;28;20199;-63
2023/05/14 07:10:08;;;;;;;3.50;3.20;;;;;;;;;;5052499;28;20192;-63
2023/05/14 07:12:36;;;;;;;5.00;3.83;;;;;;;;;;5053140;28;20597;-63
2023/05/14 07:15:04;;;;;;;6.03;4.10;;;;;;;;;;5050638;28;20716;-62
2023/05/14 07:17:32;;;;;;;4.20;3.80;;;;;;;;;;5057871;28;20222;-61
2023/05/14 07:19:59;;;;;;;3.80;3.50;;;;;;;;;;5039247;28;20254;-64
2023/05/14 07:22:27;;;;;;;4.63;3.97;;;;;;;;;;5043963;28;20199;-64
2023/05/14 07:24:56;;;;;;;4.93;4.43;;;;;;;;;;5051842;28;20231;-64
2023/05/14 07:27:24;;;;;;;9.07;4.53;;;;;;;;;;5048576;28;20207;-62
2023/05/14 07:29:52;;;;;;;4.73;4.30;;;;;;;;;;5056530;28;20592;-64
2023/05/14 07:32:20;;;;;;;5.07;4.07;;;;;;;;;;5054663;28;20251;-64
2023/05/14 07:34:47;;;;;;;4.30;3.90;;;;;;;;;;5053877;28;20203;-64
2023/05/14 07:37:15;;;;;;;4.07;3.70;;;;;;;;;;5053976;28;20195;-64
2023/05/14 07:39:43;;;;;;;5.67;4.23;;;;;;;;;;5055906;28;20276;-64
2023/05/14 07:42:12;;;;;;;4.40;4.00;;;;;;;;;;5055201;28;20233;-64
2023/05/14 07:44:54;;;;;;;4.40;4.00;;;;;;;;;;5052078;28;20267;-64
2023/05/14 07:47:22;;;;;;;4.47;4.07;;;;;;;;;;5051751;28;20623;-63
2023/05/14 07:49:53;;;;;;;3.83;3.53;;;;;;;;;;5056196;28;20195;-63
2023/05/14 07:52:21;;;;;;;6.97;4.40;;;;;;;;;;5057058;28;20609;-65
2023/05/14 07:54:50;;;;;;;4.90;4.37;;;;;;;;;;5052010;28;20204;-65
2023/05/14 07:57:19;;;;;;;4.90;4.40;;;;;;;;;;5051229;28;20234;-65
2023/05/14 07:59:47;;;;;;;5.07;4.57;;;;;;;;;;5051634;28;20270;-64
2023/05/14 08:02:15;;;;;;;5.90;4.30;;;;;;;;;;5056601;28;20225;-64
2023/05/14 08:04:43;;;;;;;4.83;4.13;;;;;;;;;;5047549;28;20227;-64
2023/05/14 08:07:11;;;;;;;5.80;5.20;;;;;;;;;;5052127;28;20202;-64
2023/05/14 08:09:39;;;;;;;8.17;4.30;;;;;;;;;;5057244;28;20658;-64
2023/05/14 08:12:07;;;;;;;4.33;3.97;;;;;;;;;;5057035;28;20213;-64
2023/05/14 08:14:36;;;;;;;4.97;4.30;;;;;;;;;;5057268;28;20265;-64
2023/05/14 08:17:04;;;;;;;5.13;4.63;;;;;;;;;;5058440;28;20693;-64
2023/05/14 08:19:32;;;;;;;4.47;4.10;;;;;;;;;;5061234;28;20198;-64
2023/05/14 08:22:00;;;;;;;5.13;4.57;;;;;;;;;;5061315;28;20222;-64
2023/05/14 08:24:28;;;;;;;6.20;4.23;;;;;;;;;;5061050;28;20246;-64
2023/05/14 08:26:56;;;;;;;7.10;4.73;;;;;;;;;;5060407;28;20262;-64
2023/05/14 08:29:24;;;;;;;4.40;4.00;;;;;;;;;;5058183;28;20669;-65
2023/05/14 08:31:53;;;;;;;5.07;4.30;;;;;;;;;;5052455;28;20196;-64
2023/05/14 08:34:21;;;;;;;4.43;4.03;;;;;;;;;;5058598;28;20558;-65
2023/05/14 08:36:49;;;;;;;4.20;3.80;;;;;;;;;;5057206;28;20223;-65
2023/05/14 08:39:17;;;;;;;6.53;4.80;;;;;;;;;;5059091;28;20266;-65
2023/05/14 08:42:09;;;;;;;4.80;4.37;;;;;;;;;;5056676;28;20348;-65
2023/05/14 08:44:39;;;;;;;4.93;4.10;;;;;;;;;;5054920;28;20205;-65
2023/05/14 08:47:08;;;;;;;4.80;4.30;;;;;;;;;;5056813;28;20223;-64
2023/05/14 08:49:40;;;;;;;4.47;4.10;;;;;;;;;;5060853;28;20237;-65
2023/05/14 08:52:08;;;;;;;4.43;4.00;;;;;;;;;;5060802;28;20203;-65
2023/05/14 08:54:36;;;;;;;4.23;3.80;;;;;;;;;;5056311;28;20625;-65
2023/05/14 08:57:04;;;;;;;4.90;4.40;;;;;;;;;;5057086;28;20276;-66
2023/05/14 08:59:32;;;;;;;7.50;4.57;;;;;;;;;;5060575;28;20218;-67
2023/05/14 09:02:01;;;;;;;4.83;4.43;;;;;;;;;;5056010;28;20258;-63
2023/05/14 09:04:31;;;;;;;4.73;4.27;;;;;;;;;;5048876;28;20250;-64
2023/05/14 09:06:59;;;;;;;4.53;4.13;;;;;;;;;;5057282;28;20625;-64
2023/05/14 09:09:27;;;;;;;4.67;4.27;;;;;;;;;;5054034;28;20559;-63
2023/05/14 09:11:55;;;;;;;5.57;4.40;;;;;;;;;;5056346;28;20226;-64
2023/05/14 09:14:23;;;;;;;5.33;4.73;;;;;;;;;;5056040;28;20195;-63
2023/05/14 09:16:51;;;;;;;6.23;4.93;;;;;;;;;;5058754;28;20272;-64
2023/05/14 09:19:20;;;;;;;4.53;4.10;;;;;;;;;;5058782;28;20294;-64
2023/05/14 09:21:49;;;;;;;4.37;4.07;;;;;;;;;;5060481;28;20265;-65
2023/05/14 09:24:21;;;;;;;4.73;4.33;;;;;;;;;;5053601;28;20662;-63
2023/05/14 09:26:50;;;;;;;3.83;3.50;;;;;;;;;;5051221;28;20639;-64
2023/05/14 09:29:17;;;;;;;4.53;4.10;;;;;;;;;;5052133;28;20257;-65
2023/05/14 09:31:45;;;;;;;4.57;4.10;;;;;;;;;;5051097;28;20597;-64
2023/05/14 09:34:23;;;;;;;4.70;4.23;;;;;;;;;;5045588;28;20271;-64
2023/05/14 09:36:54;;;;;;;4.30;3.87;;;;;;;;;;5040205;28;20223;-65
2023/05/14 09:39:22;;;;;;;4.80;4.07;;;;;;;;;;5040060;28;20616;-65
2023/05/14 09:41:51;;;;;;;4.77;3.60;;;;;;;;;;5057893;28;20230;-66
2023/05/14 09:44:18;;;;;;;4.33;3.97;;;;;;;;;;5039889;28;20277;-64
2023/05/14 09:46:46;;;;;;;4.20;3.80;;;;;;;;;;5047637;28;20222;-66
2023/05/14 09:49:15;;;;;;;4.17;3.77;;;;;;;;;;5053188;28;20230;-65
2023/05/14 09:51:42;;;;;;;4.97;3.63;;;;;;;;;;5053658;28;20287;-63
2023/05/14 09:54:11;;;;;;;5.33;3.90;;;;;;;;;;5059804;28;20229;-64
2023/05/14 09:56:39;;;;;;;3.47;2.77;;;;;;;;;;5059141;28;20768;-66
2023/05/14 09:59:07;;;;;;;4.30;3.90;;;;;;;;;;5059555;28;20662;-66
2023/05/14 10:01:35;;;;;;;4.77;3.40;;;;;;;;;;5059421;28;20223;-66
2023/05/14 10:04:03;;;;;;;3.40;3.10;;;;;;;;;;5059514;28;20206;-66
2023/05/14 10:06:33;;;;;;;3.40;3.20;;;;;;;;;;5059402;28;20721;-65
2023/05/14 10:09:02;;;;;;;3.80;3.50;;;;;;;;;;5059669;28;20211;-64
2023/05/14 10:11:33;;;;;;;5.37;3.07;;;;;;;;;;5059186;28;20202;-63
2023/05/14 10:14:03;;;;;;;3.50;3.20;;;;;;;;;;5059267;28;20214;-65
2023/05/14 10:16:33;;;;;;;5.50;2.70;;;;;;;;;;5059225;28;20281;-65
2023/05/14 10:19:04;;;;;;;3.23;3.00;;;;;;;;;;5058960;28;20616;-65
2023/05/14 10:21:34;;;;;;;3.17;2.87;;;;;;;;;;5052419;28;20305;-66
2023/05/14 10:24:03;;;;;;;3.50;3.20;;;;;;;;;;5056378;28;20230;-63
2023/05/14 10:26:32;;;;;;;3.70;3.40;;;;;;;;;;5057646;28;20223;-63
2023/05/14 10:29:00;;;;;;;3.67;3.10;;;;;;;;;;5058006;28;20206;-64
2023/05/14 10:31:43;;;;;;;3.40;3.00;;;;;;;;;;5042061;28;20231;-63
2023/05/14 10:34:31;;;;;;;3.30;3.10;;;;;;;;;;5039286;28;20215;-64
2023/05/14 10:36:59;;;;;;;3.70;3.40;;;;;;;;;;5038853;28;20769;-62
2023/05/14 10:39:40;;;;;;;3.53;2.73;;;;;;;;;;5039023;28;20219;-63
2023/05/14 10:42:10;;;;;;;3.10;2.80;;;;;;;;;;5041596;28;20231;-64
2023/05/14 10:44:40;;;;;;;3.50;3.20;;;;;;;;;;5038666;28;20659;-64
2023/05/14 10:47:08;;;;;;;3.23;2.80;;;;;;;;;;5038727;28;20224;-64
2023/05/14 10:49:36;;;;;;;2.83;2.63;;;;;;;;;;5038848;28;20223;-63
2023/05/14 10:52:11;;;;;;;4.03;3.73;;;;;;;;;;5038663;28;20202;-63
2023/05/14 10:54:38;;;;;;;3.47;2.90;;;;;;;;;;5038552;28;20584;-65
2023/05/14 10:57:11;;;;;;;2.80;2.60;;;;;;;;;;5037994;28;20236;-65
2023/05/14 10:59:41;;;;;;;3.27;3.07;;;;;;;;;;5052769;28;20264;-62
2023/05/14 11:02:20;;;;;;;10.53;5.80;;;;;;;;;;5115181;27;20575;-64
2023/05/14 11:04:58;;;;;;;4.30;3.40;;;;;;;;;;5112442;28;20292;-65
2023/05/14 11:07:30;;;;;;;2.63;2.43;;;;;;;;;;5092715;28;20236;-65
2023/05/14 11:10:00;;;;;;;4.47;3.03;;;;;;;;;;5095312;28;20206;-64
2023/05/14 11:12:27;;;;;;;2.23;2.03;;;;;;;;;;5095130;28;20201;-66
2023/05/14 11:14:56;;;;;;;2.23;2.13;;;;;;;;;;5095143;28;20565;-65
2023/05/14 11:17:26;;;;;;;2.23;2.03;;;;;;;;;;5095126;28;20205;-65
2023/05/14 11:19:54;;;;;;;2.50;2.27;;;;;;;;;;5095030;28;20205;-64
2023/05/14 11:22:22;;;;;;;2.90;2.70;;;;;;;;;;5088390;28;20272;-64
2023/05/14 11:24:50;;;;;;;3.57;3.10;;;;;;;;;;5094347;28;20206;-64
2023/05/14 11:27:18;;;;;;;3.50;3.20;;;;;;;;;;5093569;28;20198;-64
2023/05/14 11:29:46;;;;;;;3.13;2.70;;;;;;;;;;5093490;28;20202;-65
2023/05/14 11:32:14;;;;;;;2.67;2.47;;;;;;;;;;5094665;28;20221;-65
2023/05/14 11:34:44;;;;;;;2.67;2.47;;;;;;;;;;5094235;28;20217;-65
2023/05/14 11:37:12;;;;;;;3.03;2.73;;;;;;;;;;5094795;28;20255;-64
2023/05/14 11:39:46;;;;;;;2.73;2.53;;;;;;;;;;5094594;28;20236;-65
2023/05/14 11:42:16;;;;;;;3.20;2.70;;;;;;;;;;5093995;28;20226;-65
2023/05/14 11:44:44;;;;;;;2.37;2.17;;;;;;;;;;5094817;28;20233;-64
2023/05/14 11:47:12;;;;;;;2.20;2.10;;;;;;;;;;5094395;28;20205;-65
2023/05/14 11:49:40;;;;;;;4.63;2.50;;;;;;;;;;5094348;28;20210;-65
2023/05/14 11:52:10;;;;;;;2.23;2.10;;;;;;;;;;5094427;28;20239;-64
2023/05/14 11:54:38;;;;;;;2.07;1.93;;;;;;;;;;5094567;28;20201;-64
2023/05/14 11:57:08;;;;;;;2.57;2.30;;;;;;;;;;5093796;28;20257;-65
2023/05/14 11:59:36;;;;;;;2.67;2.47;;;;;;;;;;5094506;28;20641;-65
2023/05/14 12:02:04;;;;;;;3.83;2.50;;;;;;;;;;5093927;28;20287;-65
2023/05/14 12:04:32;;;;;;;2.30;2.20;;;;;;;;;;5083567;28;20213;-64
2023/05/14 12:07:00;;;;;;;2.50;2.30;;;;;;;;;;5094282;28;20312;-64
2023/05/14 12:09:29;;;;;;;2.60;2.40;;;;;;;;;;5094256;28;20696;-64
2023/05/14 12:11:56;;;;;;;2.40;2.20;;;;;;;;;;5089501;28;20207;-64
2023/05/14 12:14:24;;;;;;;4.47;2.20;;;;;;;;;;5080700;28;20233;-65
2023/05/14 12:16:52;;;;;;;2.13;2.03;;;;;;;;;;5080538;28;20232;-64
2023/05/14 12:19:22;;;;;;;2.60;2.40;;;;;;;;;;5080336;28;20206;-65
2023/05/14 12:21:51;;;;;;;2.47;2.30;;;;;;;;;;5080376;28;20226;-65
2023/05/14 12:24:19;;;;;;;2.50;2.30;;;;;;;;;;5080348;28;20217;-64
2023/05/14 12:26:49;;;;;;;2.40;2.10;;;;;;;;;;5079641;28;20690;-65
2023/05/14 12:29:17;;;;;;;2.50;2.30;;;;;;;;;;5080505;28;20206;-65
2023/05/14 12:31:45;;;;;;;2.00;1.90;;;;;;;;;;5080323;28;20202;-65
2023/05/14 12:34:13;;;;;;;2.30;2.10;;;;;;;;;;5080098;28;20203;-65
2023/05/14 12:36:41;;;;;;;2.20;2.10;;;;;;;;;;5080153;28;20225;-65
2023/05/14 12:39:09;;;;;;;2.60;2.13;;;;;;;;;;5080278;28;20248;-65
2023/05/14 12:41:37;;;;;;;2.00;1.90;;;;;;;;;;5079472;28;20283;-65
2023/05/14 12:44:06;;;;;;;3.13;2.17;;;;;;;;;;5079931;28;20237;-65
2023/05/14 12:46:34;;;;;;;2.23;2.10;;;;;;;;;;5079946;28;20271;-64
2023/05/14 12:49:01;;;;;;;5.13;2.23;;;;;;;;;;5080068;28;20680;-64
2023/05/14 12:51:29;;;;;;;1.90;1.80;;;;;;;;;;5079795;28;20202;-65
2023/05/14 12:53:57;;;;;;;3.17;2.87;;;;;;;;;;5079927;28;20211;-64
2023/05/14 12:56:27;;;;;;;1.67;1.57;;;;;;;;;;5079428;28;20724;-65
2023/05/14 12:58:55;;;;;;;1.97;1.87;;;;;;;;;;5079864;28;20204;-65
2023/05/14 13:01:24;;;;;;;3.23;1.83;;;;;;;;;;5066313;28;20238;-65
2023/05/14 13:03:52;;;;;;;2.07;1.87;;;;;;;;;;5079692;28;20202;-65
2023/05/14 13:06:20;;;;;;;2.07;1.87;;;;;;;;;;5079569;28;20315;-65
2023/05/14 13:08:48;;;;;;;2.40;2.30;;;;;;;;;;5079719;28;20210;-66
2023/05/14 13:11:16;;;;;;;4.13;2.20;;;;;;;;;;5079623;28;20634;-66
2023/05/14 13:13:43;;;;;;;1.93;1.83;;;;;;;;;;5078979;28;20260;-65
2023/05/14 13:16:15;;;;;;;1.90;1.80;;;;;;;;;;5079448;28;20276;-65
2023/05/14 13:18:44;;;;;;;2.17;1.97;;;;;;;;;;5079440;28;20239;-65
2023/05/14 13:21:12;;;;;;;2.93;2.20;;;;;;;;;;5079316;28;20207;-65
2023/05/14 13:23:40;;;;;;;2.07;1.97;;;;;;;;;;5078125;28;20303;-65
2023/05/14 13:26:08;;;;;;;1.83;1.63;;;;;;;;;;5078877;28;20603;-65
2023/05/14 13:28:36;;;;;;;1.93;1.83;;;;;;;;;;5078573;28;20570;-65
2023/05/14 13:31:05;;;;;;;2.40;1.90;;;;;;;;;;5078119;28;20206;-65
2023/05/14 13:33:34;;;;;;;2.33;1.83;;;;;;;;;;5068961;28;20205;-65
2023/05/14 13:36:04;;;;;;;1.90;1.80;;;;;;;;;;5078704;28;20698;-66
2023/05/14 13:38:31;;;;;;;2.30;2.10;;;;;;;;;;5078678;28;20206;-65
2023/05/14 13:41:01;;;;;;;1.80;1.70;;;;;;;;;;5078826;28;20210;-65
2023/05/14 13:43:29;;;;;;;1.90;1.80;;;;;;;;;;5077998;28;20253;-64
2023/05/14 13:45:57;;;;;;;2.00;1.90;;;;;;;;;;5078196;28;20284;-64
2023/05/14 13:48:25;;;;;;;2.27;2.07;;;;;;;;;;5078339;28;20216;-64
2023/05/14 13:50:53;;;;;;;2.00;1.90;;;;;;;;;;5077915;28;20205;-66
2023/05/14 13:53:23;;;;;;;1.77;1.67;;;;;;;;;;5078446;28;20236;-65
2023/05/14 13:55:55;;;;;;;1.90;1.80;;;;;;;;;;5078244;28;20237;-64
2023/05/14 13:58:23;;;;;;;1.70;1.60;;;;;;;;;;5078062;28;20220;-65
2023/05/14 14:00:51;;;;;;;1.73;1.63;;;;;;;;;;5077752;28;20260;-65
2023/05/14 14:03:19;;;;;;;2.90;1.90;;;;;;;;;;5079100;28;20242;-65
2023/05/14 14:05:47;;;;;;;2.10;1.87;;;;;;;;;;5077663;28;20271;-66
2023/05/14 14:08:14;;;;;;;2.03;1.87;;;;;;;;;;5074874;28;20264;-65
2023/05/14 14:10:53;;;;;;;1.80;1.70;;;;;;;;;;5077187;28;20198;-66
2023/05/14 14:13:22;;;;;;;1.97;1.87;;;;;;;;;;5077550;28;20707;-64
2023/05/14 14:15:49;;;;;;;2.60;2.40;;;;;;;;;;5077576;28;20249;-66
2023/05/14 14:18:17;;;;;;;2.20;2.00;;;;;;;;;;5077855;28;20256;-65
2023/05/14 14:20:45;;;;;;;1.80;1.70;;;;;;;;;;5077936;28;20654;-65
2023/05/14 14:23:13;;;;;;;2.50;2.00;;;;;;;;;;5077449;28;20218;-65
2023/05/14 14:25:40;;;;;;;1.83;1.60;;;;;;;;;;5077735;28;20248;-66
2023/05/14 14:28:09;;;;;;;1.50;1.40;;;;;;;;;;5067757;28;20666;-68
2023/05/14 14:30:37;;;;;;;4.07;2.03;;;;;;;;;;5077919;28;20237;-66
2023/05/14 14:33:05;;;;;;;1.97;1.80;;;;;;;;;;5078108;28;20202;-66
2023/05/14 14:35:34;;;;;;;1.97;1.87;;;;;;;;;;5077880;28;20241;-66
2023/05/14 14:38:01;;;;;;;1.70;1.60;;;;;;;;;;5078095;28;20285;-66
2023/05/14 14:40:29;;;;;;;2.00;1.87;;;;;;;;;;5077609;28;20213;-66
2023/05/14 14:42:57;;;;;;;2.57;1.83;;;;;;;;;;5077145;28;20222;-66
2023/05/14 14:45:26;;;;;;;1.60;1.50;;;;;;;;;;5077615;28;20275;-66
2023/05/14 14:48:14;;;;;;;1.53;1.43;;;;;;;;;;5077918;28;20210;-66
2023/05/14 14:50:41;;;;;;;1.33;1.10;;;;;;;;;;5077338;28;20622;-65